FLX16 SBGO-SBUR
Flight info
| Callsign | FLX16 |
|---|---|
| Flight time | N/A |
| Altitude | 38000 |
| Route | ESBOD DCT MAPVI DCT KUGSA |
| Aircraft | E55P/M-SBDFGHJ2RWY/LB2 |
Departure
| Time | 2026-04-27 02:55 |
|---|---|
| Airport | Santa Genoveva International Airport (SBGO) |
Arrival
| Time | N/A |
|---|---|
| Airport | Mário de Almeida Franco Airport (SBUR) |
| Time | Latitude | Longitude | Altitude | Speed | Heading |
|---|---|---|---|---|---|
| 2026-04-27 02:41 | -16.63354 | -49.22375 | 2463 ft | 0 kts | 211° |
| 2026-04-27 02:45 | -16.63355 | -49.22375 | 2463 ft | 0 kts | 211° |
| 2026-04-27 02:45 | -16.63356 | -49.22376 | 2463 ft | 0 kts | 219° |
| 2026-04-27 02:45 | -16.63363 | -49.22371 | 2463 ft | 4 kts | 99° |
| 2026-04-27 02:46 | -16.63339 | -49.22323 | 2463 ft | 10 kts | 56° |
| 2026-04-27 02:46 | -16.63346 | -49.22231 | 2463 ft | 16 kts | 119° |
| 2026-04-27 02:46 | -16.63411 | -49.22116 | 2463 ft | 19 kts | 121° |
| 2026-04-27 02:46 | -16.63483 | -49.21985 | 2463 ft | 22 kts | 120° |
| 2026-04-27 02:47 | -16.63564 | -49.21846 | 2463 ft | 22 kts | 119° |
| 2026-04-27 02:47 | -16.63639 | -49.21709 | 2463 ft | 21 kts | 119° |
| 2026-04-27 02:47 | -16.63712 | -49.21578 | 2463 ft | 20 kts | 116° |
| 2026-04-27 02:47 | -16.63786 | -49.21452 | 2463 ft | 20 kts | 122° |
| 2026-04-27 02:48 | -16.63839 | -49.21322 | 2463 ft | 19 kts | 81° |
| 2026-04-27 02:48 | -16.63816 | -49.21230 | 2463 ft | 1 kts | 74° |
| 2026-04-27 02:48 | -16.63812 | -49.21216 | 2463 ft | 2 kts | 73° |
| 2026-04-27 02:48 | -16.63807 | -49.21201 | 2463 ft | 0 kts | 73° |
| 2026-04-27 02:52 | -16.63803 | -49.21186 | 2463 ft | 4 kts | 72° |
| 2026-04-27 02:53 | -16.63788 | -49.21138 | 2464 ft | 9 kts | 72° |
| 2026-04-27 02:53 | -16.63739 | -49.21137 | 2464 ft | 10 kts | 302° |
| 2026-04-27 02:53 | -16.63731 | -49.21150 | 2463 ft | 0 kts | 300° |
| 2026-04-27 02:53 | -16.63730 | -49.21152 | 2463 ft | 0 kts | 300° |
| 2026-04-27 02:54 | -16.63728 | -49.21155 | 2464 ft | 0 kts | 300° |
| 2026-04-27 02:54 | -16.63725 | -49.21160 | 2464 ft | 2 kts | 300° |
| 2026-04-27 02:54 | -16.63684 | -49.21235 | 2464 ft | 35 kts | 300° |
| 2026-04-27 02:54 | -16.63376 | -49.21779 | 2463 ft | 135 kts | 299° |
| 2026-04-27 02:55 | -16.62794 | -49.22810 | 2795 ft | 184 kts | 300° |
| 2026-04-27 02:55 | -16.62106 | -49.24050 | 3814 ft | 208 kts | 301° |
| 2026-04-27 02:55 | -16.61281 | -49.25355 | 4887 ft | 225 kts | 306° |
| 2026-04-27 02:55 | -16.60610 | -49.26985 | 5197 ft | 281 kts | 269° |
| 2026-04-27 02:56 | -16.61173 | -49.28679 | 6481 ft | 244 kts | 231° |
| 2026-04-27 02:56 | -16.62563 | -49.29606 | 7394 ft | 244 kts | 192° |
| 2026-04-27 02:56 | -16.64168 | -49.30144 | 8257 ft | 247 kts | 207° |
| 2026-04-27 02:56 | -16.65693 | -49.30963 | 9132 ft | 250 kts | 206° |
| 2026-04-27 02:57 | -16.67213 | -49.31765 | 10217 ft | 242 kts | 207° |
| 2026-04-27 02:57 | -16.68681 | -49.32544 | 11180 ft | 239 kts | 207° |
| 2026-04-27 02:57 | -16.70156 | -49.33330 | 11959 ft | 243 kts | 206° |
| 2026-04-27 02:57 | -16.71681 | -49.34135 | 12699 ft | 249 kts | 203° |
| 2026-04-27 02:58 | -16.73364 | -49.34330 | 13449 ft | 251 kts | 165° |
| 2026-04-27 02:58 | -16.74811 | -49.33369 | 14228 ft | 252 kts | 127° |
| 2026-04-27 02:58 | -16.75680 | -49.31796 | 14973 ft | 256 kts | 117° |
| 2026-04-27 02:58 | -16.76591 | -49.30182 | 15677 ft | 261 kts | 127° |
| 2026-04-27 02:59 | -16.78038 | -49.29086 | 16320 ft | 265 kts | 163° |
| 2026-04-27 02:59 | -16.79866 | -49.28828 | 17040 ft | 267 kts | 175° |
| 2026-04-27 02:59 | -16.81702 | -49.28479 | 17724 ft | 272 kts | 155° |
| 2026-04-27 02:59 | -16.83083 | -49.27192 | 18364 ft | 275 kts | 118° |
| 2026-04-27 03:00 | -16.83503 | -49.25269 | 19048 ft | 276 kts | 84° |
| 2026-04-27 03:00 | -16.83544 | -49.23284 | 19692 ft | 279 kts | 106° |
| 2026-04-27 03:00 | -16.84580 | -49.21601 | 20306 ft | 282 kts | 140° |
| 2026-04-27 03:00 | -16.86332 | -49.20785 | 20913 ft | 284 kts | 173° |
| 2026-04-27 03:01 | -16.88306 | -49.20565 | 21529 ft | 286 kts | 167° |
| 2026-04-27 03:01 | -16.90255 | -49.20050 | 22083 ft | 290 kts | 164° |
| 2026-04-27 03:01 | -16.92203 | -49.19495 | 22659 ft | 294 kts | 163° |
| 2026-04-27 03:01 | -16.94193 | -49.18913 | 23249 ft | 297 kts | 163° |
| 2026-04-27 03:02 | -16.96260 | -49.18306 | 23867 ft | 299 kts | 163° |
| 2026-04-27 03:02 | -16.98280 | -49.17711 | 24451 ft | 302 kts | 163° |
| 2026-04-27 03:02 | -17.00360 | -49.17099 | 25031 ft | 305 kts | 163° |
| 2026-04-27 03:02 | -17.02402 | -49.16499 | 25595 ft | 307 kts | 163° |
| 2026-04-27 03:03 | -17.04493 | -49.15883 | 26127 ft | 311 kts | 163° |
| 2026-04-27 03:03 | -17.08684 | -49.14649 | 27157 ft | 317 kts | 163° |
| 2026-04-27 03:03 | -17.10821 | -49.14019 | 27661 ft | 320 kts | 163° |
| 2026-04-27 03:04 | -17.12989 | -49.13381 | 28144 ft | 324 kts | 163° |
| 2026-04-27 03:04 | -17.15174 | -49.12738 | 28614 ft | 327 kts | 163° |
| 2026-04-27 03:04 | -17.17359 | -49.12093 | 29065 ft | 330 kts | 163° |
| 2026-04-27 03:04 | -17.19598 | -49.11432 | 29518 ft | 333 kts | 163° |
| 2026-04-27 03:05 | -17.21831 | -49.10773 | 29979 ft | 336 kts | 163° |
| 2026-04-27 03:05 | -17.24095 | -49.10106 | 30416 ft | 338 kts | 163° |
| 2026-04-27 03:05 | -17.26373 | -49.09434 | 30890 ft | 339 kts | 163° |
| 2026-04-27 03:05 | -17.28617 | -49.08772 | 31405 ft | 338 kts | 163° |
| 2026-04-27 03:06 | -17.30916 | -49.08181 | 31928 ft | 337 kts | 168° |
| 2026-04-27 03:06 | -17.33234 | -49.07741 | 32401 ft | 337 kts | 168° |
| 2026-04-27 03:06 | -17.35529 | -49.07290 | 32844 ft | 337 kts | 168° |
| 2026-04-27 03:06 | -17.37844 | -49.06834 | 33360 ft | 337 kts | 168° |
| 2026-04-27 03:07 | -17.40153 | -49.06378 | 33888 ft | 337 kts | 168° |
| 2026-04-27 03:07 | -17.42445 | -49.05927 | 34427 ft | 336 kts | 168° |
| 2026-04-27 03:07 | -17.44735 | -49.05475 | 34968 ft | 335 kts | 168° |
| 2026-04-27 03:07 | -17.47020 | -49.05024 | 35483 ft | 334 kts | 168° |
| 2026-04-27 03:08 | -17.49302 | -49.04574 | 35972 ft | 334 kts | 168° |
| 2026-04-27 03:08 | -17.51600 | -49.04120 | 36469 ft | 333 kts | 168° |
| 2026-04-27 03:08 | -17.53869 | -49.03672 | 36946 ft | 333 kts | 168° |
| 2026-04-27 03:08 | -17.56135 | -49.03225 | 37397 ft | 332 kts | 168° |
| 2026-04-27 03:09 | -17.58414 | -49.02775 | 37808 ft | 333 kts | 168° |
| 2026-04-27 03:09 | -17.60703 | -49.02323 | 38114 ft | 337 kts | 168° |
| 2026-04-27 03:09 | -17.63052 | -49.01859 | 38140 ft | 349 kts | 168° |
| 2026-04-27 03:09 | -17.65505 | -49.01374 | 38140 ft | 361 kts | 168° |
| 2026-04-27 03:10 | -17.68006 | -49.00879 | 38139 ft | 372 kts | 168° |
| 2026-04-27 03:10 | -17.70583 | -49.00370 | 38138 ft | 384 kts | 169° |
| 2026-04-27 03:10 | -17.73271 | -48.99838 | 38136 ft | 395 kts | 169° |
| 2026-04-27 03:11 | -17.78802 | -48.98743 | 38131 ft | 415 kts | 169° |
| 2026-04-27 03:11 | -17.84567 | -48.97602 | 38123 ft | 433 kts | 169° |